Time;durP1;ratioP1;P1;durP2;ratioP2;P2;SDS_P1;SDS_P2;PMS_P1;PMS_P2;Temp;Humidity;BMP_temperature;BMP_pressure;BME280_temperature;BME280_humidity;BME280_pressure;Samples;Min_cycle;Max_cycle;Signal;HPM_P1;HPM_P2
2023/07/29 00:00:57;;;;;;;1.00;1.00;;;17.40;99.90;;;;;;5096268;28;20188;-65
2023/07/29 00:03:23;;;;;;;0.30;0.30;;;17.40;99.90;;;;;;5105309;27;20417;-65
2023/07/29 00:05:49;;;;;;;1.17;0.57;;;17.40;99.90;;;;;;5100156;28;20477;-65
2023/07/29 00:08:15;;;;;;;3.25;0.55;;;17.30;99.90;;;;;;5098030;28;20374;-65
2023/07/29 00:10:40;;;;;;;0.70;0.30;;;17.40;99.90;;;;;;5100906;28;20042;-65
2023/07/29 00:13:07;;;;;;;1.00;0.50;;;17.30;99.90;;;;;;5103424;28;20482;-65
2023/07/29 00:15:32;;;;;;;0.22;0.22;;;17.30;99.90;;;;;;5095495;28;20644;-65
2023/07/29 00:17:58;;;;;;;0.35;0.30;;;17.30;99.90;;;;;;5099958;28;20540;-65
2023/07/29 00:20:24;;;;;;;0.73;0.30;;;17.30;99.90;;;;;;5130567;27;20039;-65
2023/07/29 00:22:52;;;;;;;1.10;0.85;;;17.20;99.90;;;;;;5099538;28;20035;-65
2023/07/29 00:25:17;;;;;;;0.68;0.40;;;17.20;99.90;;;;;;5100998;28;20066;-65
2023/07/29 00:27:43;;;;;;;0.20;0.20;;;17.20;99.90;;;;;;5098314;28;20481;-65
2023/07/29 00:30:09;;;;;;;0.30;0.30;;;17.20;99.90;;;;;;5101502;28;20032;-65
2023/07/29 00:32:35;;;;;;;0.50;0.50;;;17.20;99.90;;;;;;5096592;28;20031;-65
2023/07/29 00:35:01;;;;;;;0.38;0.35;;;17.10;99.90;;;;;;5102885;28;20028;-65
2023/07/29 00:37:28;;;;;;;0.10;0.10;;;17.10;99.90;;;;;;5097235;28;20178;-65
2023/07/29 00:39:54;;;;;;;0.40;0.40;;;17.10;99.90;;;;;;5107974;28;20087;-65
2023/07/29 00:42:20;;;;;;;0.40;0.40;;;17.10;99.90;;;;;;5101449;28;20426;-65
2023/07/29 00:44:45;;;;;;;0.15;0.15;;;17.10;99.90;;;;;;5134151;27;20051;-65
2023/07/29 00:47:12;;;;;;;0.52;0.52;;;17.00;99.90;;;;;;5088903;28;20408;-65
2023/07/29 00:49:38;;;;;;;0.40;0.38;;;17.00;99.90;;;;;;5114660;28;20058;-65
2023/07/29 00:52:04;;;;;;;0.15;0.15;;;17.00;99.90;;;;;;5095544;28;20023;-65
2023/07/29 00:54:30;;;;;;;0.10;0.10;;;17.00;99.90;;;;;;5100518;28;20124;-65
2023/07/29 00:56:55;;;;;;;0.22;0.22;;;16.90;99.90;;;;;;5099853;28;20072;-65
2023/07/29 00:59:22;;;;;;;0.30;0.30;;;17.00;99.90;;;;;;5104453;28;20031;-65
2023/07/29 01:01:48;;;;;;;1.33;0.93;;;17.00;99.90;;;;;;5099234;28;20043;-65
2023/07/29 01:04:14;;;;;;;1.85;0.93;;;16.90;99.90;;;;;;5098563;28;20035;-65
2023/07/29 01:06:48;;;;;;;0.10;0.10;;;16.90;99.90;;;;;;5101470;28;20039;-65
2023/07/29 01:09:30;;;;;;;0.30;0.30;;;16.90;99.90;;;;;;5102399;28;20038;-65
2023/07/29 01:12:22;;;;;;;0.38;0.38;;;16.90;99.90;;;;;;5104840;28;20087;-65
2023/07/29 01:15:04;;;;;;;0.52;0.45;;;16.80;99.90;;;;;;5108634;27;20035;-66
2023/07/29 01:17:42;;;;;;;;;;;16.80;99.90;;;;;;5136083;27;20063;-65
2023/07/29 01:20:11;;;;;;;0.50;0.45;;;16.80;99.90;;;;;;5102721;27;20074;-66
2023/07/29 01:22:37;;;;;;;0.95;0.52;;;16.70;99.90;;;;;;5102967;27;20529;-65
2023/07/29 01:25:03;;;;;;;0.25;0.20;;;16.70;99.90;;;;;;5096473;27;20122;-66
2023/07/29 01:27:29;;;;;;;0.50;0.30;;;16.70;99.90;;;;;;5096174;27;20044;-66
2023/07/29 01:29:57;;;;;;;1.58;0.30;;;16.70;99.90;;;;;;5106145;27;20039;-65
2023/07/29 01:32:37;;;;;;;1.65;1.55;;;16.60;99.90;;;;;;5106043;27;20067;-66
2023/07/29 01:35:24;;;;;;;1.15;1.08;;;16.60;99.90;;;;;;5107528;27;20027;-66
2023/07/29 01:37:56;;;;;;;0.25;0.25;;;16.60;99.90;;;;;;5135252;27;20027;-66
2023/07/29 01:40:24;;;;;;;0.25;0.25;;;16.60;99.90;;;;;;5107659;27;20055;-66
2023/07/29 01:42:50;;;;;;;1.65;0.55;;;16.50;99.90;;;;;;5109604;27;20077;-66
2023/07/29 01:45:16;;;;;;;2.03;0.85;;;16.50;99.90;;;;;;5139517;27;20058;-67
2023/07/29 01:47:41;;;;;;;0.68;0.45;;;16.60;99.90;;;;;;5107336;27;20059;-66
2023/07/29 01:50:08;;;;;;;0.93;0.70;;;16.60;99.90;;;;;;5105936;27;20035;-66
2023/07/29 01:52:33;;;;;;;0.10;0.10;;;16.60;99.90;;;;;;5109229;27;20086;-66
2023/07/29 01:54:59;;;;;;;2.17;0.75;;;16.70;99.90;;;;;;5104737;27;20446;-66
2023/07/29 01:57:24;;;;;;;0.05;0.05;;;16.60;99.90;;;;;;5105624;27;20084;-66
2023/07/29 01:59:50;;;;;;;0.35;0.35;;;16.60;99.90;;;;;;5108875;27;20035;-66
2023/07/29 02:02:16;;;;;;;0.70;0.35;;;16.60;99.90;;;;;;5096687;27;20027;-67
2023/07/29 02:04:41;;;;;;;0.20;0.10;;;16.60;99.90;;;;;;5105095;27;20054;-66
2023/07/29 02:07:07;;;;;;;0.50;0.50;;;16.60;99.90;;;;;;5108570;27;20182;-67
2023/07/29 02:09:33;;;;;;;0.52;0.47;;;16.60;99.90;;;;;;5105268;27;20035;-66
2023/07/29 02:11:58;;;;;;;0.60;0.60;;;16.60;99.90;;;;;;5103442;27;20039;-66
2023/07/29 02:14:24;;;;;;;0.60;0.40;;;16.60;99.90;;;;;;5103595;27;20405;-66
2023/07/29 02:16:50;;;;;;;0.40;0.40;;;16.60;99.90;;;;;;5087647;27;20178;-66
2023/07/29 02:19:16;;;;;;;0.82;0.38;;;16.60;99.90;;;;;;5139502;27;20040;-66
2023/07/29 02:21:42;;;;;;;0.47;0.45;;;16.70;99.90;;;;;;5119676;27;20039;-65
2023/07/29 02:24:07;;;;;;;0.20;0.20;;;16.70;99.90;;;;;;5106398;27;20409;-67
2023/07/29 02:26:33;;;;;;;0.20;0.13;;;16.70;99.90;;;;;;5096423;27;20043;-67
2023/07/29 02:28:58;;;;;;;0.20;0.15;;;16.60;99.90;;;;;;5122088;27;20261;-66
2023/07/29 02:31:25;;;;;;;0.10;0.10;;;16.80;99.90;;;;;;5103570;27;20036;-66
2023/07/29 02:33:51;;;;;;;0.30;0.30;;;16.70;99.90;;;;;;5106917;27;20114;-66
2023/07/29 02:36:17;;;;;;;0.75;0.50;;;16.70;99.90;;;;;;5103274;27;20705;-67
2023/07/29 02:38:43;;;;;;;0.10;0.10;;;16.60;99.90;;;;;;5103111;27;20031;-66
2023/07/29 02:41:12;;;;;;;0.20;0.20;;;16.70;99.90;;;;;;5099201;27;20031;-66
2023/07/29 02:43:37;;;;;;;0.30;0.30;;;16.70;99.90;;;;;;5134479;27;20047;-66
2023/07/29 02:46:03;;;;;;;0.30;0.30;;;16.70;99.90;;;;;;5136757;27;20504;-66
2023/07/29 02:48:29;;;;;;;0.75;0.38;;;16.70;99.90;;;;;;5100565;27;20225;-66
2023/07/29 02:50:55;;;;;;;0.55;0.45;;;16.70;99.90;;;;;;5108112;27;20050;-66
2023/07/29 02:53:24;;;;;;;0.68;0.22;;;16.70;99.90;;;;;;5105547;27;20042;-66
2023/07/29 02:55:50;;;;;;;0.20;0.20;;;16.70;99.90;;;;;;5103244;27;20122;-66
2023/07/29 02:58:16;;;;;;;0.20;0.20;;;16.70;99.90;;;;;;5105163;27;20031;-66
2023/07/29 03:00:41;;;;;;;0.55;0.55;;;16.70;99.90;;;;;;5107076;27;20038;-67
2023/07/29 03:03:10;;;;;;;0.10;0.10;;;16.70;99.90;;;;;;5102865;27;20181;-66
2023/07/29 03:05:38;;;;;;;0.63;0.63;;;16.60;99.90;;;;;;5108106;27;20046;-66
2023/07/29 03:08:03;;;;;;;0.52;0.40;;;16.60;99.90;;;;;;5102344;27;20046;-66
2023/07/29 03:10:29;;;;;;;0.50;0.50;;;16.60;99.90;;;;;;5121257;27;20039;-66
2023/07/29 03:12:55;;;;;;;0.10;0.10;;;16.60;99.90;;;;;;5104888;27;20043;-66
2023/07/29 03:15:27;;;;;;;0.28;0.28;;;16.60;99.90;;;;;;5102183;27;20035;-66
2023/07/29 03:17:53;;;;;;;0.10;0.10;;;16.50;99.90;;;;;;5103810;27;20055;-66
2023/07/29 03:20:20;;;;;;;0.10;0.10;;;16.50;99.90;;;;;;5107501;27;20070;-67
2023/07/29 03:22:46;;;;;;;0.40;0.40;;;16.50;99.90;;;;;;5101117;27;20663;-66
2023/07/29 03:25:12;;;;;;;0.45;0.25;;;16.50;99.90;;;;;;5104853;27;20062;-66
2023/07/29 03:27:37;;;;;;;0.20;0.20;;;16.50;99.90;;;;;;5100965;27;20082;-66
2023/07/29 03:30:04;;;;;;;0.47;0.47;;;16.50;99.90;;;;;;5096300;27;20040;-66
2023/07/29 03:32:29;;;;;;;0.10;0.10;;;16.40;99.90;;;;;;5101090;27;20174;-66
2023/07/29 03:34:55;;;;;;;0.20;0.20;;;16.40;99.90;;;;;;5098960;28;20130;-66
2023/07/29 03:37:21;;;;;;;0.85;0.30;;;16.40;99.90;;;;;;5103397;27;20035;-66
2023/07/29 03:39:47;;;;;;;0.43;0.43;;;16.40;99.90;;;;;;5103971;27;20040;-65
2023/07/29 03:42:12;;;;;;;0.45;0.32;;;16.30;99.90;;;;;;5099785;27;20031;-66
2023/07/29 03:44:39;;;;;;;0.30;0.30;;;16.30;99.90;;;;;;5102994;27;20039;-66
2023/07/29 03:47:05;;;;;;;0.55;0.25;;;16.30;99.90;;;;;;5103329;27;20095;-66
2023/07/29 03:49:31;;;;;;;0.20;0.20;;;16.30;99.90;;;;;;5101907;27;20035;-66
2023/07/29 03:51:57;;;;;;;0.68;0.68;;;16.30;99.90;;;;;;5098323;27;20546;-67
2023/07/29 03:54:22;;;;;;;0.47;0.47;;;16.30;99.90;;;;;;5097123;28;20046;-67
2023/07/29 03:56:48;;;;;;;0.52;0.52;;;16.30;99.90;;;;;;5114277;27;20039;-67
2023/07/29 03:59:14;;;;;;;0.20;0.20;;;16.20;99.90;;;;;;5103682;28;20031;-66
2023/07/29 04:01:39;;;;;;;0.20;0.20;;;16.20;99.90;;;;;;5091639;28;20046;-66
2023/07/29 04:04:05;;;;;;;0.00;0.00;;;16.30;99.90;;;;;;5099797;27;20447;-67
2023/07/29 04:06:32;;;;;;;0.43;0.20;;;16.20;99.90;;;;;;5107008;28;20095;-66
2023/07/29 04:08:58;;;;;;;0.10;0.10;;;16.20;99.90;;;;;;5103077;28;20477;-66
2023/07/29 04:11:24;;;;;;;0.28;0.20;;;16.20;99.90;;;;;;5101483;28;20341;-67
2023/07/29 04:13:49;;;;;;;0.20;0.20;;;16.20;99.90;;;;;;5117699;28;20430;-66
2023/07/29 04:16:16;;;;;;;0.65;0.65;;;16.20;99.90;;;;;;5116271;28;20035;-66
2023/07/29 04:18:42;;;;;;;0.20;0.20;;;16.20;99.90;;;;;;5101586;28;20036;-66
2023/07/29 04:21:07;;;;;;;0.05;0.05;;;16.30;99.90;;;;;;5103823;28;20115;-66
2023/07/29 04:23:33;;;;;;;0.10;0.10;;;16.30;99.90;;;;;;5116598;27;20288;-66
2023/07/29 04:25:59;;;;;;;0.10;0.10;;;16.30;99.90;;;;;;5098236;28;20047;-66
2023/07/29 04:28:24;;;;;;;0.10;0.10;;;16.30;99.90;;;;;;5098167;27;20126;-66
2023/07/29 04:30:50;;;;;;;0.00;0.00;;;16.30;99.90;;;;;;5100432;28;20114;-66
2023/07/29 04:33:15;;;;;;;0.10;0.10;;;16.30;99.90;;;;;;5098471;28;20051;-66
2023/07/29 04:35:41;;;;;;;1.10;1.00;;;16.30;99.90;;;;;;5102228;28;20038;-66
2023/07/29 04:38:07;;;;;;;0.20;0.10;;;16.30;99.90;;;;;;5098322;28;20031;-66
2023/07/29 04:40:33;;;;;;;0.00;0.00;;;16.30;99.90;;;;;;5102620;28;20035;-66
2023/07/29 04:43:01;;;;;;;0.05;0.05;;;16.30;99.90;;;;;;5105378;28;20122;-66
2023/07/29 04:45:30;;;;;;;0.20;0.20;;;16.30;99.90;;;;;;5103516;28;20039;-66
2023/07/29 04:47:56;;;;;;;0.63;0.63;;;16.30;99.90;;;;;;5098466;27;20066;-66
2023/07/29 04:50:22;;;;;;;0.10;0.10;;;16.30;99.90;;;;;;5107581;27;20037;-66
2023/07/29 04:52:48;;;;;;;0.10;0.10;;;16.30;99.90;;;;;;5108881;27;20031;-66
2023/07/29 04:55:13;;;;;;;0.13;0.13;;;16.30;99.90;;;;;;5107043;27;20473;-66
2023/07/29 04:57:39;;;;;;;0.17;0.17;;;16.30;99.90;;;;;;5104834;27;20070;-66
2023/07/29 05:00:05;;;;;;;0.28;0.28;;;16.30;99.90;;;;;;5101870;27;20063;-67
2023/07/29 05:02:31;;;;;;;0.10;0.10;;;16.30;99.90;;;;;;5137554;27;20039;-67
2023/07/29 05:04:56;;;;;;;0.10;0.10;;;16.40;99.90;;;;;;5135116;27;20039;-66
2023/07/29 05:07:22;;;;;;;0.52;0.43;;;16.40;99.90;;;;;;5086733;27;20064;-67
2023/07/29 05:09:48;;;;;;;0.50;0.35;;;16.40;99.90;;;;;;5102250;27;20043;-67
2023/07/29 05:12:13;;;;;;;0.13;0.13;;;16.50;99.90;;;;;;5103791;27;20493;-67
2023/07/29 05:14:39;;;;;;;0.52;0.40;;;16.40;99.90;;;;;;5110208;27;20058;-67
2023/07/29 05:17:05;;;;;;;0.77;0.22;;;16.50;99.90;;;;;;5100842;27;20028;-66
2023/07/29 05:19:31;;;;;;;0.43;0.20;;;16.50;99.90;;;;;;5102185;27;20431;-67
2023/07/29 05:21:57;;;;;;;0.10;0.10;;;16.50;99.90;;;;;;5102959;27;20097;-67
2023/07/29 05:24:23;;;;;;;0.40;0.32;;;16.50;99.90;;;;;;5105696;27;20208;-68
2023/07/29 05:26:48;;;;;;;0.10;0.10;;;16.50;99.90;;;;;;5106428;27;20408;-67
2023/07/29 05:29:14;;;;;;;0.17;0.17;;;16.60;99.90;;;;;;5105312;27;20031;-67
2023/07/29 05:31:40;;;;;;;0.20;0.20;;;16.60;99.90;;;;;;5094554;27;20034;-67
2023/07/29 05:34:05;;;;;;;0.57;0.57;;;16.60;99.90;;;;;;5102763;27;20047;-67
2023/07/29 05:36:31;;;;;;;0.28;0.20;;;16.60;99.90;;;;;;5104032;27;20035;-67
2023/07/29 05:38:56;;;;;;;0.20;0.20;;;16.60;99.90;;;;;;5102427;27;20359;-68
2023/07/29 05:41:22;;;;;;;0.55;0.40;;;16.60;99.90;;;;;;5106374;27;20486;-68
2023/07/29 05:43:48;;;;;;;0.32;0.20;;;16.60;99.90;;;;;;5106286;27;20034;-68
2023/07/29 05:46:13;;;;;;;0.77;0.43;;;16.70;99.90;;;;;;5103887;27;20050;-67
2023/07/29 05:48:39;;;;;;;0.40;0.40;;;16.70;99.90;;;;;;5099661;27;20042;-68
2023/07/29 05:51:07;;;;;;;0.45;0.43;;;16.70;99.90;;;;;;5104222;27;20039;-67
2023/07/29 05:53:33;;;;;;;1.23;0.57;;;16.80;99.90;;;;;;5106615;27;20043;-67
2023/07/29 05:55:58;;;;;;;0.17;0.13;;;16.80;99.90;;;;;;5121281;27;20438;-67
2023/07/29 05:58:24;;;;;;;0.73;0.45;;;16.80;99.90;;;;;;5100920;27;20057;-68
2023/07/29 06:00:50;;;;;;;0.17;0.17;;;16.80;99.90;;;;;;5106875;27;20664;-68
2023/07/29 06:03:15;;;;;;;0.65;0.30;;;16.80;99.90;;;;;;5098373;27;20050;-68
2023/07/29 06:05:41;;;;;;;0.38;0.30;;;16.80;99.90;;;;;;5102618;27;20031;-68
2023/07/29 06:08:08;;;;;;;0.32;0.32;;;16.80;99.90;;;;;;5105590;27;20071;-68
2023/07/29 06:10:34;;;;;;;0.88;0.50;;;17.00;99.90;;;;;;5103451;27;20052;-68
2023/07/29 06:12:59;;;;;;;1.80;0.65;;;17.10;99.90;;;;;;5131712;27;20378;-68
2023/07/29 06:15:25;;;;;;;0.40;0.40;;;17.20;99.90;;;;;;5105897;27;20063;-67
2023/07/29 06:17:51;;;;;;;1.35;0.30;;;17.30;99.90;;;;;;5104345;27;20542;-67
2023/07/29 06:20:16;;;;;;;0.75;0.43;;;17.40;99.90;;;;;;5101396;27;20518;-68
2023/07/29 06:22:43;;;;;;;0.90;0.90;;;17.40;99.90;;;;;;5101079;27;20106;-68
2023/07/29 06:25:08;;;;;;;0.52;0.20;;;17.50;99.90;;;;;;5102267;27;20050;-66
2023/07/29 06:27:34;;;;;;;0.50;0.30;;;17.50;99.90;;;;;;5132539;27;20035;-67
2023/07/29 06:30:00;;;;;;;0.70;0.30;;;17.50;99.90;;;;;;5128108;27;20454;-68
2023/07/29 06:32:26;;;;;;;3.25;0.98;;;17.50;99.90;;;;;;5097743;27;20075;-67
2023/07/29 06:34:53;;;;;;;1.60;0.50;;;17.50;99.90;;;;;;5102800;27;20466;-67
2023/07/29 06:37:19;;;;;;;0.52;0.52;;;17.50;99.90;;;;;;5100460;27;20038;-67
2023/07/29 06:39:45;;;;;;;0.17;0.17;;;17.50;99.90;;;;;;5101791;27;20103;-67
2023/07/29 06:42:10;;;;;;;0.32;0.30;;;17.60;99.90;;;;;;5085944;27;20035;-68
2023/07/29 06:44:36;;;;;;;1.45;1.35;;;17.70;99.90;;;;;;5098207;27;20043;-68
2023/07/29 06:47:02;;;;;;;1.85;0.60;;;17.70;99.90;;;;;;5098441;27;20554;-68
2023/07/29 06:49:27;;;;;;;0.88;0.40;;;17.80;99.90;;;;;;5121675;27;20043;-69
2023/07/29 06:51:53;;;;;;;1.98;0.50;;;17.80;99.90;;;;;;5136105;27;20038;-68
2023/07/29 06:54:18;;;;;;;0.47;0.40;;;17.90;99.90;;;;;;5102947;27;20035;-68
2023/07/29 06:56:44;;;;;;;0.93;0.63;;;17.90;99.90;;;;;;5106830;27;20031;-68
2023/07/29 06:59:10;;;;;;;2.15;0.70;;;17.90;99.90;;;;;;5105230;27;20362;-67
2023/07/29 07:01:35;;;;;;;1.95;0.47;;;17.90;99.90;;;;;;5100337;27;20288;-68
2023/07/29 07:04:01;;;;;;;0.82;0.50;;;18.00;99.90;;;;;;5137841;27;20465;-68
2023/07/29 07:06:27;;;;;;;1.90;0.55;;;18.10;99.90;;;;;;5135930;27;20050;-68
2023/07/29 07:08:52;;;;;;;0.73;0.55;;;18.10;99.90;;;;;;5097335;27;20466;-68
2023/07/29 07:11:18;;;;;;;1.23;0.45;;;18.10;99.90;;;;;;5087799;27;20084;-68
2023/07/29 07:13:44;;;;;;;1.75;0.73;;;18.20;99.90;;;;;;5105520;27;20049;-68
2023/07/29 07:16:09;;;;;;;0.35;0.35;;;18.30;99.90;;;;;;5124117;27;20308;-69
2023/07/29 07:18:35;;;;;;;0.57;0.30;;;18.30;99.90;;;;;;5100269;27;20042;-68
2023/07/29 07:21:01;;;;;;;0.30;0.30;;;18.40;99.90;;;;;;5134882;27;20437;-68
2023/07/29 07:23:26;;;;;;;0.10;0.10;;;18.50;99.90;;;;;;5105068;27;20492;-67
2023/07/29 07:25:52;;;;;;;0.55;0.40;;;18.50;99.90;;;;;;5102532;27;20059;-68
2023/07/29 07:28:17;;;;;;;0.75;0.70;;;18.60;99.90;;;;;;5105451;27;20050;-68
2023/07/29 07:30:43;;;;;;;0.75;0.75;;;18.70;99.90;;;;;;5100925;28;20035;-68
2023/07/29 07:33:09;;;;;;;0.40;0.40;;;18.80;99.90;;;;;;5101933;27;20507;-68
2023/07/29 07:35:34;;;;;;;0.43;0.40;;;18.80;99.90;;;;;;5131249;27;20274;-68
2023/07/29 07:38:02;;;;;;;0.88;0.88;;;18.80;99.90;;;;;;5129748;27;20062;-68
2023/07/29 07:40:27;;;;;;;0.65;0.60;;;18.70;99.90;;;;;;5102068;28;20135;-68
2023/07/29 07:42:53;;;;;;;3.05;0.43;;;18.70;99.90;;;;;;5095553;28;20557;-68
2023/07/29 07:45:19;;;;;;;1.30;0.82;;;18.70;99.90;;;;;;5096233;28;20494;-68
2023/07/29 07:47:45;;;;;;;1.20;0.88;;;18.70;99.90;;;;;;5095271;27;20050;-68
2023/07/29 07:50:10;;;;;;;0.40;0.40;;;18.80;99.90;;;;;;5104581;27;20480;-69
2023/07/29 07:52:36;;;;;;;2.08;0.75;;;18.80;99.90;;;;;;5122398;27;20107;-67
2023/07/29 07:55:02;;;;;;;0.52;0.30;;;18.90;99.90;;;;;;5092334;28;20489;-69
2023/07/29 07:57:27;;;;;;;1.05;0.47;;;19.00;99.90;;;;;;5092746;28;20039;-68
2023/07/29 07:59:53;;;;;;;1.15;0.70;;;19.10;99.90;;;;;;5111209;27;20058;-68
2023/07/29 08:02:20;;;;;;;0.28;0.28;;;19.30;99.90;;;;;;5089102;28;20047;-68
2023/07/29 08:04:45;;;;;;;1.33;0.47;;;19.20;99.90;;;;;;5125333;27;20627;-68
2023/07/29 08:07:11;;;;;;;2.33;1.00;;;19.20;99.90;;;;;;5103815;28;20043;-68
2023/07/29 08:09:37;;;;;;;0.40;0.30;;;19.30;99.90;;;;;;5109148;28;20064;-68
2023/07/29 08:12:02;;;;;;;0.50;0.50;;;19.30;99.90;;;;;;5096706;28;20350;-67
2023/07/29 08:14:28;;;;;;;1.13;0.73;;;19.30;99.90;;;;;;5101787;28;20050;-67
2023/07/29 08:16:53;;;;;;;0.43;0.43;;;19.50;99.90;;;;;;5111205;28;20031;-69
2023/07/29 08:19:19;;;;;;;0.10;0.10;;;19.80;99.90;;;;;;5095744;28;20071;-68
2023/07/29 08:21:45;;;;;;;4.03;1.38;;;19.90;99.90;;;;;;5096699;27;20035;-68
2023/07/29 08:24:10;;;;;;;1.40;1.30;;;19.80;99.90;;;;;;5101573;28;20082;-68
2023/07/29 08:26:36;;;;;;;0.10;0.10;;;19.80;99.90;;;;;;5109185;27;20374;-68
2023/07/29 08:29:02;;;;;;;0.50;0.40;;;19.80;99.90;;;;;;5102368;28;20177;-68
2023/07/29 08:31:28;;;;;;;0.38;0.38;;;19.70;99.90;;;;;;5113593;27;20046;-68
2023/07/29 08:33:53;;;;;;;0.35;0.22;;;19.70;99.90;;;;;;5104163;28;20048;-69
2023/07/29 08:36:19;;;;;;;1.45;1.35;;;19.80;99.90;;;;;;5095507;28;20494;-68
2023/07/29 08:38:44;;;;;;;0.30;0.30;;;19.70;99.90;;;;;;5094604;28;20363;-69
2023/07/29 08:41:25;;;;;;;0.10;0.10;;;19.70;99.90;;;;;;5096226;28;20036;-66
2023/07/29 08:44:06;;;;;;;0.85;0.85;;;19.70;99.90;;;;;;5130629;27;20050;-68
2023/07/29 08:46:32;;;;;;;1.45;0.68;;;19.70;99.90;;;;;;5113249;27;20058;-66
2023/07/29 08:48:59;;;;;;;0.40;0.40;;;19.80;99.90;;;;;;5103844;27;21021;-67
2023/07/29 08:51:26;;;;;;;0.38;0.32;;;19.90;99.90;;;;;;5147854;27;20050;-67
2023/07/29 08:53:53;;;;;;;5.47;0.28;;;20.00;99.90;;;;;;5105898;27;20070;-68
2023/07/29 08:56:18;;;;;;;0.20;0.20;;;20.10;99.90;;;;;;5135146;27;20227;-67
2023/07/29 08:58:44;;;;;;;0.20;0.20;;;20.40;99.90;;;;;;5100667;28;20529;-66
2023/07/29 09:01:09;;;;;;;0.20;0.20;;;20.60;99.90;;;;;;5114536;28;20494;-67
2023/07/29 09:03:36;;;;;;;0.40;0.40;;;20.70;99.90;;;;;;5094944;28;20417;-67
2023/07/29 09:06:02;;;;;;;0.25;0.25;;;20.70;99.90;;;;;;5100033;28;20040;-66
2023/07/29 09:08:28;;;;;;;0.47;0.45;;;20.70;99.90;;;;;;5095756;28;20032;-67
2023/07/29 09:10:55;;;;;;;24.13;0.65;;;20.60;99.90;;;;;;5108600;27;20050;-67
2023/07/29 09:13:21;;;;;;;0.70;0.70;;;20.60;99.90;;;;;;5095229;28;20058;-69
2023/07/29 09:15:47;;;;;;;0.57;0.57;;;20.40;99.90;;;;;;5140354;27;20043;-67
2023/07/29 09:18:19;;;;;;;0.25;0.25;;;20.50;99.90;;;;;;5111512;27;20076;-65
2023/07/29 09:20:47;;;;;;;0.28;0.20;;;20.80;99.90;;;;;;5114107;27;20443;-66
2023/07/29 09:23:13;;;;;;;0.20;0.20;;;21.00;99.90;;;;;;5102232;27;20039;-67
2023/07/29 09:25:39;;;;;;;0.20;0.20;;;21.10;99.90;;;;;;5102011;27;20050;-66
2023/07/29 09:28:13;;;;;;;0.98;0.30;;;21.30;99.90;;;;;;5127529;27;20031;-68
2023/07/29 09:30:40;;;;;;;0.20;0.20;;;21.30;99.90;;;;;;5102231;27;20382;-68
2023/07/29 09:33:06;;;;;;;0.82;0.68;;;21.20;99.90;;;;;;5107890;27;21155;-68
2023/07/29 09:35:34;;;;;;;0.30;0.30;;;21.10;99.90;;;;;;5104214;27;20038;-67
2023/07/29 09:38:00;;;;;;;0.20;0.20;;;21.00;99.90;;;;;;5106214;27;20060;-67
2023/07/29 09:40:26;;;;;;;11.95;1.02;;;20.80;99.90;;;;;;5103218;27;20394;-66
2023/07/29 09:42:55;;;;;;;0.30;0.30;;;20.60;99.90;;;;;;5108036;27;20034;-67
2023/07/29 09:45:25;;;;;;;0.60;0.40;;;20.50;99.90;;;;;;5112904;27;20049;-67
2023/07/29 09:47:53;;;;;;;0.38;0.38;;;20.50;99.90;;;;;;5112860;27;20046;-68
2023/07/29 09:50:18;;;;;;;0.20;0.10;;;20.60;99.90;;;;;;5103388;27;20039;-67
2023/07/29 09:52:45;;;;;;;0.40;0.40;;;20.60;99.90;;;;;;5111802;27;20562;-66
2023/07/29 09:55:16;;;;;;;0.60;0.30;;;20.70;99.90;;;;;;5111907;27;20040;-67
2023/07/29 09:57:43;;;;;;;0.20;0.17;;;20.90;99.90;;;;;;5109152;27;20560;-67
2023/07/29 10:00:11;;;;;;;0.20;0.20;;;21.00;99.90;;;;;;5096302;28;20503;-67
2023/07/29 10:02:43;;;;;;;0.35;0.20;;;20.80;99.90;;;;;;5094483;28;20035;-67
2023/07/29 10:05:09;;;;;;;1.00;0.57;;;20.80;99.90;;;;;;5106751;27;20065;-66
2023/07/29 10:07:39;;;;;;;1.55;1.10;;;20.70;99.90;;;;;;5107911;27;20035;-67
2023/07/29 10:10:07;;;;;;;0.30;0.30;;;20.50;99.90;;;;;;5103119;27;20058;-66
2023/07/29 10:12:34;;;;;;;1.05;0.50;;;20.40;99.90;;;;;;5114393;27;20088;-68
2023/07/29 10:15:05;;;;;;;0.32;0.32;;;20.30;99.90;;;;;;5104926;27;20043;-68
2023/07/29 10:17:34;;;;;;;1.25;0.80;;;20.10;99.90;;;;;;5095134;27;20047;-66
2023/07/29 10:20:00;;;;;;;0.70;0.50;;;20.10;99.90;;;;;;5097635;27;20084;-68
2023/07/29 10:22:33;;;;;;;0.73;0.55;;;20.30;99.90;;;;;;5114057;27;20070;-69
2023/07/29 10:25:07;;;;;;;0.60;0.60;;;20.40;99.90;;;;;;5101564;27;20050;-69
2023/07/29 10:28:04;;;;;;;0.63;0.63;;;20.40;99.90;;;;;;5136128;27;20043;-66
2023/07/29 10:30:30;;;;;;;0.40;0.38;;;20.50;99.90;;;;;;5130947;27;20116;-65
2023/07/29 10:32:58;;;;;;;0.55;0.50;;;20.50;99.90;;;;;;5103822;27;20043;-68
2023/07/29 10:35:25;;;;;;;0.63;0.52;;;20.50;99.90;;;;;;5096672;27;20047;-66
2023/07/29 10:37:53;;;;;;;0.50;0.40;;;20.40;99.90;;;;;;5127887;27;20031;-68
2023/07/29 10:40:19;;;;;;;1.15;1.05;;;20.20;99.90;;;;;;5097381;27;20039;-66
2023/07/29 10:43:08;;;;;;;3.17;0.65;;;19.90;99.90;;;;;;5104269;27;20054;-68
2023/07/29 10:45:41;;;;;;;1.70;0.65;;;19.70;99.90;;;;;;5103973;27;20039;-66
2023/07/29 10:48:11;;;;;;;0.80;0.80;;;19.70;99.90;;;;;;5104073;27;20043;-68
2023/07/29 10:50:37;;;;;;;1.42;0.63;;;19.60;99.90;;;;;;5101298;27;20393;-67
2023/07/29 10:53:03;;;;;;;0.93;0.93;;;19.60;99.90;;;;;;5106949;27;20038;-67
2023/07/29 10:55:32;;;;;;;0.93;0.77;;;19.70;99.90;;;;;;5102779;28;20051;-66
2023/07/29 10:58:17;;;;;;;0.30;0.30;;;20.00;99.90;;;;;;5109692;27;20126;-67
2023/07/29 11:00:46;;;;;;;1.92;0.70;;;20.20;99.90;;;;;;5110450;27;20039;-67
2023/07/29 11:03:16;;;;;;;0.43;0.40;;;20.30;99.90;;;;;;5099757;28;20035;-67
2023/07/29 11:05:44;;;;;;;0.43;0.40;;;20.20;99.90;;;;;;5097891;27;20039;-67
2023/07/29 11:08:28;;;;;;;0.10;0.10;;;19.90;99.90;;;;;;5098325;27;20404;-68
2023/07/29 11:11:00;;;;;;;5.78;2.05;;;19.70;99.90;;;;;;5095932;28;20115;-67
2023/07/29 11:13:34;;;;;;;0.28;0.28;;;19.60;99.90;;;;;;5116702;27;20481;-66
2023/07/29 11:16:01;;;;;;;0.22;0.22;;;19.60;99.90;;;;;;5095178;27;20050;-67
2023/07/29 11:18:29;;;;;;;0.38;0.30;;;19.90;99.90;;;;;;5095256;27;20043;-66
2023/07/29 11:20:57;;;;;;;1.25;0.35;;;20.00;99.90;;;;;;5105817;27;20036;-67
2023/07/29 11:23:37;;;;;;;0.60;0.20;;;20.20;99.90;;;;;;5104991;27;20047;-67
2023/07/29 11:26:04;;;;;;;1.83;0.50;;;20.10;99.90;;;;;;5106483;27;20466;-69
2023/07/29 11:28:30;;;;;;;0.10;0.10;;;20.00;99.90;;;;;;5103063;28;20039;-69
2023/07/29 11:30:56;;;;;;;0.40;0.32;;;19.90;99.90;;;;;;5085531;27;20031;-68
2023/07/29 11:33:25;;;;;;;1.40;1.23;;;20.10;99.90;;;;;;5103329;27;20408;-69
2023/07/29 11:35:51;;;;;;;0.10;0.10;;;20.20;99.90;;;;;;5100107;27;20053;-68
2023/07/29 11:38:19;;;;;;;0.65;0.60;;;20.20;99.90;;;;;;5093876;27;20443;-70
2023/07/29 11:40:54;;;;;;;0.32;0.30;;;20.60;99.90;;;;;;5085958;27;20035;-68
2023/07/29 11:43:20;;;;;;;1.17;0.47;;;20.80;99.90;;;;;;5102347;28;20043;-68
2023/07/29 11:45:45;;;;;;;0.10;0.10;;;21.10;99.90;;;;;;5099418;27;20036;-69
2023/07/29 11:48:11;;;;;;;0.10;0.10;;;21.30;99.90;;;;;;5100714;27;20064;-70
2023/07/29 11:50:37;;;;;;;0.38;0.38;;;21.40;99.90;;;;;;5096511;28;20124;-68
2023/07/29 11:53:03;;;;;;;0.63;0.35;;;21.50;99.90;;;;;;5095963;27;20035;-68
2023/07/29 11:55:29;;;;;;;0.30;0.30;;;21.40;99.90;;;;;;5098204;27;20043;-69
2023/07/29 11:57:55;;;;;;;0.45;0.25;;;21.40;99.90;;;;;;5110295;27;20722;-68
2023/07/29 12:00:21;;;;;;;0.20;0.20;;;21.30;99.90;;;;;;5098359;27;20036;-67
2023/07/29 12:02:49;;;;;;;0.15;0.15;;;21.20;99.90;;;;;;5124299;27;20046;-68
2023/07/29 12:05:15;;;;;;;2.45;0.85;;;21.20;99.90;;;;;;5095847;28;20408;-68
2023/07/29 12:07:42;;;;;;;0.65;0.40;;;21.20;99.90;;;;;;5113403;27;20168;-69
2023/07/29 12:10:10;;;;;;;0.40;0.40;;;21.10;99.90;;;;;;5095883;27;20485;-67
2023/07/29 12:12:53;;;;;;;1.95;0.43;;;21.00;99.90;;;;;;5094232;28;20039;-70
2023/07/29 12:15:26;;;;;;;0.50;0.50;;;20.90;99.90;;;;;;5098884;28;20043;-67
2023/07/29 12:17:56;;;;;;;0.10;0.10;;;20.90;99.90;;;;;;5094089;28;20423;-68
2023/07/29 12:20:23;;;;;;;0.10;0.10;;;20.90;99.90;;;;;;5096241;28;20094;-67
2023/07/29 12:23:02;;;;;;;0.20;0.20;;;21.10;99.90;;;;;;5093584;28;20503;-69
2023/07/29 12:25:28;;;;;;;0.88;0.20;;;21.30;99.90;;;;;;5110617;27;20069;-69
2023/07/29 12:27:54;;;;;;;1.05;0.98;;;21.50;99.90;;;;;;5086598;28;20442;-67
2023/07/29 12:30:24;;;;;;;0.00;0.00;;;21.50;99.90;;;;;;5094265;28;20138;-69
2023/07/29 12:32:50;;;;;;;0.10;0.10;;;21.50;99.90;;;;;;5114926;27;20570;-68
2023/07/29 12:35:16;;;;;;;0.60;0.50;;;21.50;99.90;;;;;;5095757;28;20031;-68
2023/07/29 12:37:42;;;;;;;0.90;0.20;;;21.30;99.90;;;;;;5094262;28;20032;-69
2023/07/29 12:40:22;;;;;;;0.40;0.32;;;21.10;99.90;;;;;;5113604;28;20383;-68
2023/07/29 12:42:49;;;;;;;0.20;0.20;;;21.00;99.90;;;;;;5131552;27;20046;-68
2023/07/29 12:45:18;;;;;;;0.70;0.45;;;21.00;99.90;;;;;;5092880;28;20524;-68
2023/07/29 12:47:44;;;;;;;0.77;0.30;;;21.10;99.90;;;;;;5094870;28;20050;-69